createdAt,value
2023-04-14T00:00:03.529Z,9.62
2023-04-14T00:01:04.165Z,9.62
2023-04-14T00:02:04.265Z,9.62
2023-04-14T00:03:04.534Z,9.62
2023-04-14T00:04:04.270Z,9.69
2023-04-14T00:05:04.290Z,9.62
2023-04-14T00:06:04.244Z,9.56
2023-04-14T00:07:04.416Z,9.62
2023-04-14T00:08:04.321Z,9.56
2023-04-14T00:09:04.411Z,9.56
2023-04-14T00:10:04.640Z,9.50
2023-04-14T00:11:03.673Z,9.44
2023-04-14T00:12:04.076Z,9.38
2023-04-14T00:13:04.178Z,9.31
2023-04-14T00:14:04.251Z,9.31
2023-04-14T00:15:04.314Z,9.25
2023-04-14T00:16:04.386Z,9.31
2023-04-14T00:17:04.423Z,9.25
2023-04-14T00:18:03.595Z,9.25
2023-04-14T00:19:03.749Z,9.38
2023-04-14T00:20:03.623Z,9.44
2023-04-14T00:21:03.674Z,9.38
2023-04-14T00:22:03.589Z,9.38
2023-04-14T00:23:03.674Z,9.44
2023-04-14T00:24:03.597Z,9.44
2023-04-14T00:25:03.682Z,9.44
2023-04-14T00:26:03.598Z,9.38
2023-04-14T00:27:03.673Z,9.38
2023-04-14T00:28:03.748Z,9.31
2023-04-14T00:29:04.072Z,9.31
2023-04-14T00:30:03.919Z,9.31
2023-04-14T00:31:03.891Z,9.19
2023-04-14T00:32:03.843Z,9.19
2023-04-14T00:33:03.896Z,9.19
2023-04-14T00:34:03.820Z,9.12
2023-04-14T00:35:04.023Z,9.06
2023-04-14T00:36:04.008Z,9.06
2023-04-14T00:37:03.926Z,9.06
2023-04-14T00:38:04.392Z,9.00
2023-04-14T00:39:03.524Z,9.00
2023-04-14T00:40:03.589Z,8.94
2023-04-14T00:41:03.674Z,8.94
2023-04-14T00:42:03.752Z,8.94
2023-04-14T00:43:03.680Z,8.88
2023-04-14T00:44:03.674Z,8.88
2023-04-14T00:45:03.768Z,8.94
2023-04-14T00:46:03.688Z,9.12
2023-04-14T00:47:03.712Z,9.19
2023-04-14T00:48:03.853Z,9.31
2023-04-14T00:49:03.988Z,9.44
2023-04-14T00:50:03.845Z,9.38
2023-04-14T00:51:03.836Z,9.31
2023-04-14T00:52:03.831Z,9.25
2023-04-14T00:53:03.825Z,9.25
2023-04-14T00:54:03.997Z,9.38
2023-04-14T00:55:03.916Z,9.38
2023-04-14T00:56:04.087Z,9.25
2023-04-14T00:57:03.987Z,9.31
2023-04-14T00:58:04.074Z,9.38
2023-04-14T00:59:03.993Z,9.25
2023-04-14T01:00:04.092Z,9.19
2023-04-14T01:01:04.065Z,9.12
2023-04-14T01:02:04.298Z,9.06
2023-04-14T01:03:04.337Z,9.00
2023-04-14T01:04:04.214Z,9.31
2023-04-14T01:05:04.278Z,9.38
2023-04-14T01:06:04.147Z,9.44
2023-04-14T01:07:04.151Z,9.50
2023-04-14T01:08:04.167Z,9.44
2023-04-14T01:09:04.148Z,9.44
2023-04-14T01:10:04.167Z,9.44
2023-04-14T01:11:04.247Z,9.44
2023-04-14T01:12:04.313Z,9.44
2023-04-14T01:13:04.233Z,9.44
2023-04-14T01:14:04.332Z,9.31
2023-04-14T01:15:04.394Z,9.25
2023-04-14T01:16:04.562Z,9.19
2023-04-14T01:17:04.501Z,9.19
2023-04-14T01:18:04.520Z,9.12
2023-04-14T01:19:03.544Z,9.00
2023-04-14T01:20:03.517Z,9.00
2023-04-14T01:21:04.304Z,8.94
2023-04-14T01:22:04.481Z,9.00
2023-04-14T01:23:04.478Z,8.94
2023-04-14T01:24:03.522Z,9.00
2023-04-14T01:25:03.549Z,9.00
2023-04-14T01:26:04.396Z,9.00
2023-04-14T01:27:03.523Z,9.00
2023-04-14T01:28:03.524Z,9.00
2023-04-14T01:29:03.625Z,9.00
2023-04-14T01:30:03.672Z,9.00
2023-04-14T01:31:03.775Z,9.00
2023-04-14T01:32:03.961Z,9.00
2023-04-14T01:33:04.098Z,8.94
2023-04-14T01:34:03.996Z,8.88
2023-04-14T01:35:03.991Z,8.88
2023-04-14T01:36:03.953Z,8.81
2023-04-14T01:37:04.006Z,8.81
2023-04-14T01:38:04.076Z,9.25
2023-04-14T01:39:03.955Z,9.44
2023-04-14T01:40:04.000Z,9.56
2023-04-14T01:41:03.995Z,9.69
2023-04-14T01:42:04.004Z,9.75
2023-04-14T01:43:03.998Z,9.81
2023-04-14T01:44:03.912Z,9.81
2023-04-14T01:45:04.067Z,9.69
2023-04-14T01:46:04.223Z,9.56
2023-04-14T01:47:04.178Z,9.44
2023-04-14T01:48:04.287Z,9.44
2023-04-14T01:49:04.401Z,9.31
2023-04-14T01:50:04.227Z,9.38
2023-04-14T01:51:04.312Z,9.50
2023-04-14T01:52:04.318Z,9.44
2023-04-14T01:53:04.387Z,9.56
2023-04-14T01:54:04.362Z,9.56
2023-04-14T01:55:04.309Z,9.50
2023-04-14T01:56:04.382Z,9.56
2023-04-14T01:57:04.388Z,9.50
2023-04-14T01:58:04.476Z,9.62
2023-04-14T01:59:03.597Z,9.62
2023-04-14T02:00:03.524Z,9.44
2023-04-14T02:01:03.568Z,9.44
2023-04-14T02:02:03.656Z,9.44
2023-04-14T02:03:03.642Z,9.38
2023-04-14T02:04:03.669Z,9.31
2023-04-14T02:05:03.594Z,9.25
2023-04-14T02:06:03.599Z,9.31
2023-04-14T02:07:03.600Z,9.25
2023-04-14T02:08:03.591Z,9.25
2023-04-14T02:09:03.683Z,9.25
2023-04-14T02:10:03.745Z,9.19
2023-04-14T02:11:03.671Z,9.19
2023-04-14T02:12:03.750Z,9.19
2023-04-14T02:13:03.840Z,9.19
2023-04-14T02:14:03.753Z,9.12
2023-04-14T02:15:03.668Z,9.12
2023-04-14T02:16:03.749Z,9.06
2023-04-14T02:17:03.854Z,9.06
2023-04-14T02:18:03.901Z,9.06
2023-04-14T02:19:03.944Z,9.00
2023-04-14T02:20:03.945Z,9.06
2023-04-14T02:21:03.907Z,9.25
2023-04-14T02:22:03.984Z,9.06
2023-04-14T02:23:03.992Z,8.88
2023-04-14T02:24:04.062Z,8.81
2023-04-14T02:25:04.065Z,8.88
2023-04-14T02:26:04.157Z,8.81
2023-04-14T02:27:04.094Z,8.75
2023-04-14T02:28:04.071Z,8.81
2023-04-14T02:29:04.252Z,8.81
2023-04-14T02:30:04.155Z,8.75
2023-04-14T02:31:04.181Z,8.75
2023-04-14T02:32:04.060Z,8.62
2023-04-14T02:33:04.444Z,8.62
2023-04-14T02:34:04.332Z,8.56
2023-04-14T02:35:04.296Z,8.56
2023-04-14T02:36:04.401Z,8.69
2023-04-14T02:37:04.388Z,8.75
2023-04-14T02:38:03.517Z,8.75
2023-04-14T02:39:03.546Z,8.69
2023-04-14T02:40:03.606Z,8.81
2023-04-14T02:41:03.680Z,8.75
2023-04-14T02:42:03.741Z,8.81
2023-04-14T02:43:03.822Z,8.81
2023-04-14T02:44:03.917Z,8.75
2023-04-14T02:45:03.993Z,8.75
2023-04-14T02:46:04.062Z,8.75
2023-04-14T02:47:04.030Z,8.75
2023-04-14T02:48:04.123Z,8.75
2023-04-14T02:49:04.074Z,8.75
2023-04-14T02:50:04.158Z,8.75
2023-04-14T02:51:04.066Z,8.75
2023-04-14T02:52:04.143Z,8.75
2023-04-14T02:53:04.239Z,8.69
2023-04-14T02:54:04.322Z,8.75
2023-04-14T02:55:04.313Z,8.75
2023-04-14T02:56:04.403Z,8.75
2023-04-14T02:57:04.567Z,8.75
2023-04-14T02:58:03.504Z,8.75
2023-04-14T02:59:03.597Z,8.75
2023-04-14T03:00:03.557Z,8.75
2023-04-14T03:01:03.610Z,8.69
2023-04-14T03:02:03.664Z,8.62
2023-04-14T03:03:03.914Z,8.56
2023-04-14T03:04:03.893Z,8.50
2023-04-14T03:05:04.084Z,8.50
2023-04-14T03:06:03.990Z,8.56
2023-04-14T03:07:03.912Z,8.62
2023-04-14T03:08:04.082Z,8.69
2023-04-14T03:09:04.196Z,8.69
2023-04-14T03:10:04.082Z,8.69
2023-04-14T03:11:04.276Z,8.69
2023-04-14T03:12:04.242Z,8.62
2023-04-14T03:13:04.236Z,8.62
2023-04-14T03:14:04.224Z,8.56
2023-04-14T03:15:04.385Z,8.56
2023-04-14T03:16:04.430Z,8.56
2023-04-14T03:17:04.388Z,8.50
2023-04-14T03:18:03.573Z,8.50
2023-04-14T03:19:03.566Z,8.50
2023-04-14T03:20:03.520Z,8.50
2023-04-14T03:21:03.516Z,8.56
2023-04-14T03:22:03.682Z,8.75
2023-04-14T03:23:03.592Z,8.75
2023-04-14T03:24:03.754Z,8.81
2023-04-14T03:25:03.676Z,8.88
2023-04-14T03:26:03.668Z,8.88
2023-04-14T03:27:03.834Z,8.88
2023-04-14T03:28:03.771Z,8.94
2023-04-14T03:29:03.758Z,8.94
2023-04-14T03:30:03.915Z,8.94
2023-04-14T03:31:03.846Z,9.00
2023-04-14T03:32:03.907Z,9.12
2023-04-14T03:33:03.978Z,9.19
2023-04-14T03:34:03.984Z,9.19
2023-04-14T03:35:03.999Z,9.12
2023-04-14T03:36:04.069Z,9.06
2023-04-14T03:37:04.083Z,8.88
2023-04-14T03:38:04.067Z,8.81
2023-04-14T03:39:04.230Z,8.81
2023-04-14T03:40:04.324Z,8.75
2023-04-14T03:41:04.222Z,8.81
2023-04-14T03:42:04.398Z,8.75
2023-04-14T03:43:04.399Z,8.69
2023-04-14T03:44:04.479Z,8.56
2023-04-14T03:45:04.494Z,8.56
2023-04-14T03:46:03.508Z,8.50
2023-04-14T03:47:03.742Z,8.44
2023-04-14T03:48:03.733Z,8.44
2023-04-14T03:49:03.693Z,8.44
2023-04-14T03:50:03.666Z,8.56
2023-04-14T03:51:03.657Z,8.56
2023-04-14T03:52:03.671Z,8.56
2023-04-14T03:53:03.660Z,8.56
2023-04-14T03:54:03.748Z,8.50
2023-04-14T03:55:03.670Z,8.50
2023-04-14T03:56:03.659Z,8.44
2023-04-14T03:57:03.746Z,8.44
2023-04-14T03:58:03.816Z,8.38
2023-04-14T03:59:03.854Z,8.31
2023-04-14T04:00:03.906Z,8.31
2023-04-14T04:01:03.823Z,8.31
2023-04-14T04:02:03.955Z,8.31
2023-04-14T04:03:04.184Z,8.50
2023-04-14T04:04:04.027Z,8.62
2023-04-14T04:05:04.213Z,8.81
2023-04-14T04:06:04.141Z,8.88
2023-04-14T04:07:04.229Z,8.94
2023-04-14T04:08:04.304Z,8.94
2023-04-14T04:09:04.466Z,9.00
2023-04-14T04:10:04.401Z,9.00
2023-04-14T04:11:04.376Z,9.06
2023-04-14T04:12:04.396Z,9.06
2023-04-14T04:13:03.512Z,9.06
2023-04-14T04:14:03.680Z,9.06
2023-04-14T04:15:03.596Z,9.06
2023-04-14T04:16:03.703Z,9.00
2023-04-14T04:17:03.793Z,9.06
2023-04-14T04:18:03.723Z,9.00
2023-04-14T04:19:03.768Z,8.94
2023-04-14T04:20:04.887Z,8.88
2023-04-14T04:21:03.743Z,8.88
2023-04-14T04:22:03.924Z,8.88
2023-04-14T04:23:03.903Z,8.94
2023-04-14T04:24:04.015Z,8.94
2023-04-14T04:25:04.410Z,9.00
2023-04-14T04:26:04.323Z,8.88
2023-04-14T04:27:06.468Z,8.88
2023-04-14T04:28:04.546Z,8.94
2023-04-14T04:29:03.609Z,8.75
2023-04-14T04:30:03.511Z,8.75
2023-04-14T04:31:03.528Z,8.62
2023-04-14T04:32:03.609Z,8.56
2023-04-14T04:33:03.767Z,8.50
2023-04-14T04:34:03.706Z,8.44
2023-04-14T04:35:03.844Z,8.75
2023-04-14T04:36:03.834Z,9.06
2023-04-14T04:37:03.916Z,9.25
2023-04-14T04:38:04.004Z,9.00
2023-04-14T04:39:04.064Z,8.75
2023-04-14T04:40:04.001Z,8.62
2023-04-14T04:41:04.069Z,8.75
2023-04-14T04:42:04.166Z,8.94
2023-04-14T04:43:04.144Z,8.81
2023-04-14T04:44:04.235Z,8.75
2023-04-14T04:45:04.230Z,8.69
2023-04-14T04:46:04.274Z,8.75
2023-04-14T04:47:04.399Z,8.62
2023-04-14T04:48:04.580Z,8.94
2023-04-14T04:49:03.688Z,9.25
2023-04-14T04:50:03.596Z,9.44
2023-04-14T04:51:03.520Z,9.50
2023-04-14T04:52:03.673Z,9.44
2023-04-14T04:53:03.764Z,9.25
2023-04-14T04:54:03.748Z,9.12
2023-04-14T04:55:03.827Z,9.00
2023-04-14T04:56:03.917Z,8.94
2023-04-14T04:57:03.824Z,8.81
2023-04-14T04:58:04.002Z,8.75
2023-04-14T04:59:04.107Z,8.69
2023-04-14T05:00:03.924Z,8.69
2023-04-14T05:01:03.925Z,8.69
2023-04-14T05:02:04.100Z,8.69
2023-04-14T05:03:04.244Z,8.69
2023-04-14T05:04:04.229Z,8.62
2023-04-14T05:05:04.301Z,8.81
2023-04-14T05:06:04.475Z,8.88
2023-04-14T05:07:04.408Z,8.81
2023-04-14T05:08:03.516Z,8.81
2023-04-14T05:09:03.701Z,8.81
2023-04-14T05:10:03.597Z,8.81
2023-04-14T05:11:03.601Z,9.06
2023-04-14T05:12:03.683Z,9.06
2023-04-14T05:13:03.678Z,9.44
2023-04-14T05:14:03.941Z,9.69
2023-04-14T05:15:03.914Z,9.56
2023-04-14T05:16:04.031Z,9.25
2023-04-14T05:17:04.078Z,9.00
2023-04-14T05:18:04.035Z,8.88
2023-04-14T05:19:04.137Z,8.69
2023-04-14T05:20:04.080Z,8.62
2023-04-14T05:21:04.070Z,8.62
2023-04-14T05:22:04.082Z,8.62
2023-04-14T05:23:04.070Z,9.00
2023-04-14T05:24:04.232Z,9.31
2023-04-14T05:25:04.313Z,9.50
2023-04-14T05:26:26.787Z,9.25
2023-04-14T05:28:04.164Z,9.06
2023-04-14T05:29:04.315Z,8.88
2023-04-14T05:30:04.470Z,9.06
2023-04-14T05:31:04.437Z,9.25
2023-04-14T05:32:04.328Z,9.38
2023-04-14T05:33:03.594Z,9.44
2023-04-14T05:34:03.805Z,9.44
2023-04-14T05:35:03.600Z,9.25
2023-04-14T05:36:03.758Z,9.31
2023-04-14T05:37:03.661Z,9.44
2023-04-14T05:38:03.678Z,9.31
2023-04-14T05:39:03.754Z,9.25
2023-04-14T05:40:03.909Z,9.19
2023-04-14T05:41:03.921Z,9.25
2023-04-14T05:42:03.998Z,9.25
2023-04-14T05:43:04.161Z,9.25
2023-04-14T05:44:04.380Z,9.25
2023-04-14T05:45:04.271Z,9.31
2023-04-14T05:46:04.279Z,9.12
2023-04-14T05:47:04.325Z,9.06
2023-04-14T05:48:04.532Z,9.00
2023-04-14T05:49:03.637Z,9.06
2023-04-14T05:50:03.508Z,9.12
2023-04-14T05:51:03.603Z,9.12
2023-04-14T05:52:03.847Z,9.19
2023-04-14T05:53:03.830Z,9.12
2023-04-14T05:54:03.827Z,9.19
2023-04-14T05:55:03.754Z,9.12
2023-04-14T05:56:03.912Z,9.19
2023-04-14T05:57:03.994Z,9.19
2023-04-14T05:58:03.998Z,9.12
2023-04-14T05:59:04.007Z,9.12
2023-04-14T06:00:04.268Z,9.19
2023-04-14T06:01:04.480Z,9.12
2023-04-14T06:02:03.548Z,9.19
2023-04-14T06:03:03.667Z,9.19
2023-04-14T06:04:04.314Z,9.38
2023-04-14T06:05:04.042Z,9.81
2023-04-14T06:06:03.756Z,10.06
2023-04-14T06:07:04.005Z,10.25
2023-04-14T06:08:04.092Z,10.25
2023-04-14T06:09:04.086Z,10.25
2023-04-14T06:10:04.256Z,10.44
2023-04-14T06:11:04.423Z,10.50
2023-04-14T06:12:04.400Z,10.25
2023-04-14T06:13:03.593Z,10.00
2023-04-14T06:14:03.683Z,9.88
2023-04-14T06:15:03.687Z,9.75
2023-04-14T06:16:03.753Z,9.62
2023-04-14T06:17:03.834Z,9.56
2023-04-14T06:18:03.777Z,9.56
2023-04-14T06:19:04.056Z,9.75
2023-04-14T06:20:03.925Z,9.94
2023-04-14T06:21:04.084Z,10.00
2023-04-14T06:22:04.328Z,9.88
2023-04-14T06:23:04.335Z,9.81
2023-04-14T06:24:04.391Z,9.75
2023-04-14T06:25:03.508Z,9.75
2023-04-14T06:26:03.509Z,9.69
2023-04-14T06:27:03.670Z,9.62
2023-04-14T06:28:03.599Z,9.50
2023-04-14T06:29:03.966Z,9.50
2023-04-14T06:30:03.677Z,9.75
2023-04-14T06:31:03.754Z,9.75
2023-04-14T06:32:03.904Z,9.62
2023-04-14T06:33:03.846Z,9.56
2023-04-14T06:34:03.998Z,9.62
2023-04-14T06:35:04.004Z,9.56
2023-04-14T06:36:04.002Z,9.56
2023-04-14T06:37:04.321Z,9.81
2023-04-14T06:38:04.234Z,10.19
2023-04-14T06:39:04.418Z,10.25
2023-04-14T06:40:04.389Z,10.56
2023-04-14T06:41:03.674Z,10.44
2023-04-14T06:42:03.590Z,10.31
2023-04-14T06:43:03.522Z,10.44
2023-04-14T06:44:03.516Z,10.50
2023-04-14T06:45:03.532Z,10.50
2023-04-14T06:46:03.606Z,10.62
2023-04-14T06:47:03.599Z,10.62
2023-04-14T06:48:03.786Z,10.38
2023-04-14T06:49:03.874Z,10.25
2023-04-14T06:50:03.789Z,10.19
2023-04-14T06:51:03.848Z,10.38
2023-04-14T06:52:03.759Z,10.19
2023-04-14T06:53:03.681Z,10.12
2023-04-14T06:54:04.087Z,10.31
2023-04-14T06:55:03.919Z,10.25
2023-04-14T06:56:03.905Z,10.25
2023-04-14T06:57:03.910Z,10.19
2023-04-14T06:58:03.960Z,10.12
2023-04-14T06:59:04.960Z,10.38
2023-04-14T07:00:04.011Z,10.38
2023-04-14T07:01:04.169Z,10.38
2023-04-14T07:02:04.233Z,10.38
2023-04-14T07:03:04.433Z,10.38
2023-04-14T07:04:06.973Z,10.38
2023-04-14T07:05:04.629Z,10.44
2023-04-14T07:06:03.594Z,10.38
2023-04-14T07:07:03.748Z,10.44
2023-04-14T07:08:03.833Z,10.56
2023-04-14T07:09:03.755Z,10.50
2023-04-14T07:10:03.763Z,10.44
2023-04-14T07:11:03.925Z,10.38
2023-04-14T07:12:03.909Z,10.31
2023-04-14T07:13:03.824Z,10.31
2023-04-14T07:14:04.041Z,10.38
2023-04-14T07:15:03.985Z,10.25
2023-04-14T07:16:04.096Z,10.25
2023-04-14T07:17:04.147Z,10.25
2023-04-14T07:18:04.249Z,10.31
2023-04-14T07:19:04.230Z,10.38
2023-04-14T07:20:04.394Z,10.38
2023-04-14T07:21:04.543Z,10.44
2023-04-14T07:22:03.575Z,10.44
2023-04-14T07:23:03.596Z,10.56
2023-04-14T07:24:03.799Z,10.56
2023-04-14T07:25:03.600Z,10.50
2023-04-14T07:26:03.752Z,10.56
2023-04-14T07:27:03.753Z,10.69
2023-04-14T07:28:04.270Z,10.75
2023-04-14T07:29:03.824Z,10.81
2023-04-14T07:30:03.916Z,10.81
2023-04-14T07:31:03.981Z,10.88
2023-04-14T07:32:04.064Z,10.88
2023-04-14T07:33:04.046Z,10.88
2023-04-14T07:34:04.246Z,10.88
2023-04-14T07:35:04.226Z,10.94
2023-04-14T07:36:04.371Z,10.94
2023-04-14T07:37:04.322Z,10.94
2023-04-14T07:38:04.389Z,10.94
2023-04-14T07:39:04.231Z,10.94
2023-04-14T07:40:04.395Z,10.88
2023-04-14T07:41:04.487Z,10.88
2023-04-14T07:42:03.598Z,10.88
2023-04-14T07:43:03.667Z,10.81
2023-04-14T07:44:03.899Z,10.75
2023-04-14T07:45:03.793Z,10.75
2023-04-14T07:46:04.118Z,10.69
2023-04-14T07:47:04.088Z,10.69
2023-04-14T07:48:04.021Z,10.62
2023-04-14T07:49:04.078Z,10.62
2023-04-14T07:50:04.141Z,10.62
2023-04-14T07:51:04.323Z,10.62
2023-04-14T07:52:04.390Z,10.62
2023-04-14T07:53:04.397Z,10.69
2023-04-14T07:54:04.494Z,10.69
2023-04-14T07:55:04.499Z,10.75
2023-04-14T07:56:04.503Z,10.75
2023-04-14T07:57:03.755Z,10.75
2023-04-14T07:58:03.906Z,10.81
2023-04-14T07:59:03.909Z,10.88
2023-04-14T08:00:03.821Z,10.88
2023-04-14T08:01:03.921Z,10.88
2023-04-14T08:02:04.465Z,11.06
2023-04-14T08:03:04.549Z,11.12
2023-04-14T08:04:04.010Z,11.38
2023-04-14T08:05:03.713Z,11.31
2023-04-14T08:06:03.673Z,11.31
2023-04-14T08:07:03.686Z,11.31
2023-04-14T08:08:03.836Z,11.25
2023-04-14T08:09:03.993Z,11.25
2023-04-14T08:10:03.986Z,11.31
2023-04-14T08:11:04.076Z,11.31
2023-04-14T08:12:04.324Z,11.31
2023-04-14T08:13:04.172Z,11.50
2023-04-14T08:14:04.222Z,12.00
2023-04-14T08:15:04.311Z,12.00
2023-04-14T08:16:04.414Z,11.88
2023-04-14T08:17:03.519Z,11.88
2023-04-14T08:18:03.695Z,11.88
2023-04-14T08:19:03.959Z,11.88
2023-04-14T08:20:03.830Z,12.25
2023-04-14T08:21:03.744Z,12.44
2023-04-14T08:22:03.908Z,12.69
2023-04-14T08:23:04.065Z,12.75
2023-04-14T08:24:04.233Z,12.88
2023-04-14T08:25:04.309Z,12.88
2023-04-14T08:26:04.386Z,13.00
2023-04-14T08:27:04.396Z,13.06
2023-04-14T08:28:04.466Z,13.12
2023-04-14T08:29:03.718Z,13.12
2023-04-14T08:30:03.591Z,13.12
2023-04-14T08:31:03.600Z,13.38
2023-04-14T08:32:03.725Z,13.44
2023-04-14T08:33:03.696Z,13.56
2023-04-14T08:34:03.867Z,13.56
2023-04-14T08:35:36.487Z,13.62
2023-04-14T08:36:04.347Z,13.56
2023-04-14T08:37:04.467Z,13.56
2023-04-14T08:38:04.494Z,13.56
2023-04-14T08:39:03.627Z,13.69
2023-04-14T08:40:03.673Z,13.56
2023-04-14T08:41:03.750Z,13.44
2023-04-14T08:42:03.839Z,13.31
2023-04-14T08:43:03.992Z,13.31
2023-04-14T08:44:04.066Z,13.31
2023-04-14T08:45:04.236Z,13.31
2023-04-14T08:46:04.269Z,13.31
2023-04-14T08:47:04.396Z,13.50
2023-04-14T08:48:04.341Z,13.50
2023-04-14T08:49:04.226Z,13.50
2023-04-14T08:50:04.351Z,13.62
2023-04-14T08:51:04.410Z,13.69
2023-04-14T08:52:04.470Z,13.62
2023-04-14T08:53:03.522Z,13.62
2023-04-14T08:54:03.909Z,13.62
2023-04-14T08:55:03.860Z,13.88
2023-04-14T08:56:03.780Z,13.75
2023-04-14T08:57:03.792Z,13.88
2023-04-14T08:58:03.749Z,13.75
2023-04-14T08:59:03.928Z,13.81
2023-04-14T09:00:04.162Z,13.88
2023-04-14T09:01:04.319Z,13.81
2023-04-14T09:02:04.741Z,13.75
2023-04-14T09:03:04.735Z,13.69
2023-04-14T09:04:03.923Z,13.62
2023-04-14T09:05:03.698Z,13.62
2023-04-14T09:06:03.691Z,13.56
2023-04-14T09:07:03.750Z,13.62
2023-04-14T09:08:03.832Z,13.56
2023-04-14T09:09:03.831Z,13.62
2023-04-14T09:10:04.011Z,13.62
2023-04-14T09:11:04.134Z,13.50
2023-04-14T09:12:04.004Z,13.44
2023-04-14T09:13:04.009Z,13.25
2023-04-14T09:14:04.244Z,13.12
2023-04-14T09:15:04.067Z,13.06
2023-04-14T09:16:04.154Z,13.00
2023-04-14T09:17:04.235Z,13.06
2023-04-14T09:18:04.357Z,13.06
2023-04-14T09:19:06.351Z,13.12
2023-04-14T09:20:36.979Z,13.19
2023-04-14T09:21:29.706Z,13.25
2023-04-14T09:22:03.846Z,13.31
2023-04-14T09:23:03.920Z,13.19
2023-04-14T09:24:04.103Z,13.06
2023-04-14T09:25:04.088Z,13.00
2023-04-14T09:26:04.053Z,12.88
2023-04-14T09:27:04.082Z,12.94
2023-04-14T09:28:04.241Z,12.88
2023-04-14T09:29:04.514Z,12.94
2023-04-14T09:30:04.396Z,13.00
2023-04-14T09:31:04.374Z,13.00
2023-04-14T09:32:03.538Z,13.00
2023-04-14T09:33:03.586Z,13.19
2023-04-14T09:34:03.760Z,13.38
2023-04-14T09:35:03.787Z,13.25
2023-04-14T09:36:03.925Z,13.19
2023-04-14T09:37:03.991Z,13.19
2023-04-14T09:38:04.099Z,13.12
2023-04-14T09:39:04.158Z,13.06
2023-04-14T09:40:04.389Z,13.06
2023-04-14T09:41:04.397Z,13.12
2023-04-14T09:42:04.544Z,13.12
2023-04-14T09:43:03.586Z,13.06
2023-04-14T09:44:03.825Z,12.94
2023-04-14T09:45:03.607Z,12.94
2023-04-14T09:46:03.708Z,12.88
2023-04-14T09:47:03.740Z,12.81
2023-04-14T09:48:04.052Z,12.94
2023-04-14T09:49:03.992Z,12.88
2023-04-14T09:50:04.092Z,12.88
2023-04-14T09:51:04.231Z,12.94
2023-04-14T09:52:04.341Z,13.06
2023-04-14T09:53:04.310Z,13.12
2023-04-14T09:54:04.965Z,13.12
2023-04-14T09:55:04.319Z,12.94
2023-04-14T09:56:04.399Z,12.88
2023-04-14T09:57:03.527Z,12.94
2023-04-14T09:58:03.588Z,12.88
2023-04-14T09:59:04.024Z,12.88
2023-04-14T10:00:03.514Z,12.88
2023-04-14T10:01:03.670Z,12.81
2023-04-14T10:02:03.830Z,12.81
2023-04-14T10:03:03.803Z,12.69
2023-04-14T10:04:03.926Z,12.81
2023-04-14T10:05:03.848Z,13.00
2023-04-14T10:06:03.912Z,13.19
2023-04-14T10:07:03.943Z,13.38
2023-04-14T10:08:04.002Z,13.38
2023-04-14T10:09:04.511Z,13.25
2023-04-14T10:10:04.322Z,13.19
2023-04-14T10:11:04.227Z,13.06
2023-04-14T10:12:04.308Z,13.00
2023-04-14T10:13:04.469Z,12.94
2023-04-14T10:14:04.509Z,13.00
2023-04-14T10:15:03.539Z,12.81
2023-04-14T10:16:03.762Z,12.94
2023-04-14T10:17:03.672Z,13.00
2023-04-14T10:18:03.833Z,12.94
2023-04-14T10:19:04.175Z,12.81
2023-04-14T10:20:04.753Z,12.75
2023-04-14T10:21:03.932Z,12.62
2023-04-14T10:22:04.077Z,12.69
2023-04-14T10:23:04.071Z,12.75
2023-04-14T10:24:03.994Z,12.75
2023-04-14T10:25:04.151Z,12.81
2023-04-14T10:26:04.073Z,12.81
2023-04-14T10:27:04.086Z,12.88
2023-04-14T10:28:04.165Z,12.81
2023-04-14T10:29:04.395Z,12.88
2023-04-14T10:30:04.230Z,12.81
2023-04-14T10:31:04.333Z,12.75
2023-04-14T10:32:04.420Z,12.69
2023-04-14T10:33:03.541Z,12.81
2023-04-14T10:34:03.582Z,12.88
2023-04-14T10:35:03.785Z,12.94
2023-04-14T10:36:03.988Z,13.25
2023-04-14T10:37:04.169Z,13.25
2023-04-14T10:38:04.164Z,13.44
2023-04-14T10:39:04.369Z,13.62
2023-04-14T10:40:04.243Z,13.62
2023-04-14T10:41:04.342Z,13.62
2023-04-14T10:42:04.338Z,13.56
2023-04-14T10:43:04.570Z,13.44
2023-04-14T10:44:04.313Z,13.38
2023-04-14T10:45:04.491Z,13.44
2023-04-14T10:46:03.592Z,13.44
2023-04-14T10:47:03.674Z,13.38
2023-04-14T10:48:03.720Z,13.25
2023-04-14T10:49:03.715Z,13.25
2023-04-14T10:50:03.756Z,13.50
2023-04-14T10:51:03.855Z,13.31
2023-04-14T10:52:03.907Z,13.25
2023-04-14T10:53:03.915Z,13.19
2023-04-14T10:54:03.914Z,13.00
2023-04-14T10:55:04.153Z,12.88
2023-04-14T10:56:04.156Z,12.88
2023-04-14T10:57:04.314Z,12.75
2023-04-14T10:58:04.308Z,12.75
2023-04-14T10:59:04.330Z,12.69
2023-04-14T11:00:04.409Z,12.56
2023-04-14T11:01:03.557Z,12.56
2023-04-14T11:02:03.761Z,12.69
2023-04-14T11:03:03.816Z,12.69
2023-04-14T11:04:03.813Z,12.62
2023-04-14T11:05:03.746Z,12.81
2023-04-14T11:06:03.755Z,12.94
2023-04-14T11:07:04.001Z,12.88
2023-04-14T11:08:03.998Z,12.81
2023-04-14T11:09:04.121Z,12.69
2023-04-14T11:10:04.081Z,12.56
2023-04-14T11:11:04.138Z,12.50
2023-04-14T11:12:04.233Z,12.75
2023-04-14T11:13:04.413Z,12.62
2023-04-14T11:14:04.475Z,12.50
2023-04-14T11:15:04.407Z,12.44
2023-04-14T11:16:04.441Z,12.50
2023-04-14T11:17:04.944Z,12.38
2023-04-14T11:18:03.582Z,12.56
2023-04-14T11:19:03.598Z,12.62
2023-04-14T11:20:03.673Z,12.50
2023-04-14T11:21:03.588Z,12.44
2023-04-14T11:22:03.611Z,12.38
2023-04-14T11:23:03.667Z,12.31
2023-04-14T11:24:03.819Z,12.25
2023-04-14T11:25:03.856Z,12.19
2023-04-14T11:26:04.003Z,12.25
2023-04-14T11:27:04.080Z,12.31
2023-04-14T11:28:04.082Z,12.25
2023-04-14T11:29:04.184Z,12.44
2023-04-14T11:30:04.233Z,12.50
2023-04-14T11:31:04.398Z,12.56
2023-04-14T11:32:04.468Z,12.44
2023-04-14T11:33:03.684Z,12.44
2023-04-14T11:34:03.681Z,12.44
2023-04-14T11:35:03.673Z,12.44
2023-04-14T11:36:03.917Z,12.38
2023-04-14T11:37:03.992Z,12.31
2023-04-14T11:38:04.076Z,12.38
2023-04-14T11:39:04.178Z,12.38
2023-04-14T11:40:04.232Z,12.38
2023-04-14T11:41:04.245Z,12.50
2023-04-14T11:42:04.233Z,12.56
2023-04-14T11:43:04.234Z,12.62
2023-04-14T11:44:04.248Z,12.56
2023-04-14T11:45:04.253Z,12.56
2023-04-14T11:46:04.356Z,12.62
2023-04-14T11:47:04.400Z,12.81
2023-04-14T11:48:04.549Z,13.00
2023-04-14T11:49:04.486Z,12.94
2023-04-14T11:50:03.616Z,12.94
2023-04-14T11:51:03.966Z,12.94
2023-04-14T11:52:03.587Z,12.94
2023-04-14T11:53:03.684Z,12.94
2023-04-14T11:54:03.661Z,13.06
2023-04-14T11:55:03.931Z,13.19
2023-04-14T11:56:03.856Z,13.12
2023-04-14T11:57:03.834Z,13.25
2023-04-14T11:58:03.973Z,13.19
2023-04-14T11:59:04.338Z,13.25
2023-04-14T12:00:03.907Z,13.31
2023-04-14T12:01:03.901Z,13.19
2023-04-14T12:02:04.188Z,13.19
2023-04-14T12:03:04.306Z,13.12
2023-04-14T12:04:04.324Z,13.12
2023-04-14T12:05:04.581Z,13.12
2023-04-14T12:06:04.146Z,13.06
2023-04-14T12:07:04.406Z,13.19
2023-04-14T12:08:04.371Z,13.19
2023-04-14T12:09:04.330Z,13.25
2023-04-14T12:10:04.477Z,13.25
2023-04-14T12:11:04.396Z,13.31
2023-04-14T12:12:03.511Z,13.44
2023-04-14T12:13:03.634Z,13.31
2023-04-14T12:14:03.765Z,13.31
2023-04-14T12:15:03.929Z,13.25
2023-04-14T12:16:03.943Z,13.25
2023-04-14T12:17:04.149Z,13.12
2023-04-14T12:18:04.311Z,13.12
2023-04-14T12:19:04.731Z,13.06
2023-04-14T12:20:04.399Z,13.12
2023-04-14T12:21:03.512Z,13.00
2023-04-14T12:22:03.437Z,13.00
2023-04-14T12:23:03.504Z,13.00
2023-04-14T12:24:03.752Z,12.94
2023-04-14T12:25:03.680Z,12.88
2023-04-14T12:26:03.747Z,12.81
2023-04-14T12:27:03.849Z,12.75
2023-04-14T12:28:03.828Z,12.69
2023-04-14T12:29:04.081Z,12.81
2023-04-14T12:30:03.823Z,12.81
2023-04-14T12:31:03.849Z,12.88
2023-04-14T12:32:03.924Z,12.81
2023-04-14T12:33:03.944Z,12.81
2023-04-14T12:34:04.099Z,12.81
2023-04-14T12:35:03.910Z,13.00
2023-04-14T12:36:03.927Z,12.94
2023-04-14T12:37:04.081Z,13.19
2023-04-14T12:38:03.989Z,13.38
2023-04-14T12:39:03.974Z,13.38
2023-04-14T12:40:04.068Z,13.31
2023-04-14T12:41:04.158Z,13.25
2023-04-14T12:42:04.319Z,13.25
2023-04-14T12:43:04.247Z,13.19
2023-04-14T12:44:04.236Z,13.50
2023-04-14T12:45:04.231Z,13.62
2023-04-14T12:46:04.237Z,13.50
2023-04-14T12:47:04.403Z,13.38
2023-04-14T12:48:04.433Z,13.31
2023-04-14T12:49:04.378Z,13.19
2023-04-14T12:50:03.599Z,13.12
2023-04-14T12:51:03.627Z,13.06
2023-04-14T12:52:03.664Z,13.06
2023-04-14T12:53:03.766Z,13.00
2023-04-14T12:54:03.754Z,12.88
2023-04-14T12:55:03.829Z,12.75
2023-04-14T12:56:03.910Z,12.62
2023-04-14T12:57:04.989Z,12.56
2023-04-14T12:58:04.071Z,12.50
2023-04-14T12:59:04.258Z,12.44
2023-04-14T13:00:04.172Z,12.38
2023-04-14T13:01:04.380Z,12.38
2023-04-14T13:02:04.396Z,12.50
2023-04-14T13:03:03.608Z,12.44
2023-04-14T13:04:03.565Z,12.38
2023-04-14T13:05:03.598Z,12.38
2023-04-14T13:06:03.665Z,12.50